createdAt,value
2017-09-24T00:00:19.962Z,31.33
2017-09-24T00:02:47.434Z,32.10
2017-09-24T00:05:14.935Z,31.90
2017-09-24T00:07:43.175Z,31.53
2017-09-24T00:10:10.639Z,32.00
2017-09-24T00:12:38.127Z,32.50
2017-09-24T00:15:06.356Z,29.13
2017-09-24T00:17:33.839Z,32.03
2017-09-24T00:20:01.303Z,33.63
2017-09-24T00:22:28.780Z,28.70
2017-09-24T00:24:57.014Z,30.10
2017-09-24T00:27:24.484Z,33.57
2017-09-24T00:29:51.962Z,34.57
2017-09-24T00:32:20.193Z,30.13
2017-09-24T00:34:47.680Z,30.93
2017-09-24T00:37:15.146Z,34.10
2017-09-24T00:39:42.638Z,34.77
2017-09-24T00:42:10.118Z,30.70
2017-09-24T00:44:37.585Z,32.60
2017-09-24T00:47:05.054Z,30.30
2017-09-24T00:49:32.530Z,32.30
2017-09-24T00:51:59.995Z,33.17
2017-09-24T00:54:27.467Z,35.40
2017-09-24T00:56:55.714Z,32.43
2017-09-24T00:59:23.186Z,31.70
2017-09-24T01:01:50.654Z,34.07
2017-09-24T01:04:18.906Z,33.60
2017-09-24T01:06:46.375Z,39.23
2017-09-24T01:09:13.866Z,35.67
2017-09-24T01:11:41.327Z,35.77
2017-09-24T01:14:08.797Z,38.50
2017-09-24T01:16:38.831Z,42.67
2017-09-24T01:19:06.299Z,37.30
2017-09-24T01:21:33.759Z,37.57
2017-09-24T01:24:01.247Z,43.83
2017-09-24T01:26:28.709Z,45.87
2017-09-24T01:28:56.185Z,46.47
2017-09-24T01:31:24.414Z,52.33
2017-09-24T01:33:51.897Z,55.20
2017-09-24T01:36:20.146Z,52.40
2017-09-24T01:38:47.626Z,56.13
2017-09-24T01:41:15.086Z,55.23
2017-09-24T01:43:42.571Z,62.37
2017-09-24T01:46:11.314Z,52.93
2017-09-24T01:48:38.791Z,57.30
2017-09-24T01:51:06.253Z,50.70
2017-09-24T01:53:33.722Z,54.80
2017-09-24T01:56:01.971Z,50.90
2017-09-24T01:58:29.438Z,50.10
2017-09-24T02:00:56.911Z,48.77
2017-09-24T02:03:24.374Z,45.33
2017-09-24T02:05:52.625Z,46.40
2017-09-24T02:08:20.103Z,48.30
2017-09-24T02:10:47.585Z,45.37
2017-09-24T02:13:15.823Z,46.70
2017-09-24T02:15:43.303Z,44.27
2017-09-24T02:18:11.527Z,42.77
2017-09-24T02:20:39.005Z,41.90
2017-09-24T02:23:06.475Z,41.23
2017-09-24T02:25:33.951Z,43.23
2017-09-24T02:28:02.190Z,45.60
2017-09-24T02:30:29.664Z,41.57
2017-09-24T02:32:57.135Z,42.70
2017-09-24T02:35:24.622Z,46.17
2017-09-24T02:37:52.097Z,45.40
2017-09-24T02:40:19.568Z,44.40
2017-09-24T02:42:47.045Z,43.40
2017-09-24T02:45:14.528Z,44.93
2017-09-24T02:47:42.004Z,44.17
2017-09-24T02:50:10.237Z,40.77
2017-09-24T02:52:37.725Z,44.47
2017-09-24T02:55:05.206Z,41.20
2017-09-24T02:57:33.462Z,41.40
2017-09-24T03:00:00.924Z,43.73
2017-09-24T03:02:29.172Z,45.40
2017-09-24T03:04:56.630Z,42.50
2017-09-24T03:07:24.109Z,42.20
2017-09-24T03:09:51.565Z,42.87
2017-09-24T03:12:19.049Z,40.83
2017-09-24T03:14:47.279Z,41.77
2017-09-24T03:17:14.775Z,38.83
2017-09-24T03:19:43.000Z,40.33
2017-09-24T03:22:10.480Z,42.10
2017-09-24T03:24:37.951Z,40.77
2017-09-24T03:27:05.436Z,42.93
2017-09-24T03:29:33.671Z,48.60
2017-09-24T03:32:01.148Z,42.10
2017-09-24T03:34:28.611Z,46.77
2017-09-24T03:36:56.856Z,43.63
2017-09-24T03:39:24.318Z,43.73
2017-09-24T03:41:51.800Z,44.03
2017-09-24T03:44:19.265Z,45.80
2017-09-24T03:46:47.507Z,42.33
2017-09-24T03:49:15.345Z,44.97
2017-09-24T03:51:42.810Z,44.97
2017-09-24T03:54:10.289Z,45.33
2017-09-24T03:56:37.755Z,47.90
2017-09-24T03:59:05.260Z,45.97
2017-09-24T04:01:32.721Z,44.67
2017-09-24T04:04:00.190Z,45.27
2017-09-24T04:06:27.664Z,45.30
2017-09-24T04:08:55.146Z,40.40
2017-09-24T04:11:22.610Z,39.70
2017-09-24T04:13:50.088Z,42.97
2017-09-24T04:16:18.330Z,43.30
2017-09-24T04:18:45.799Z,40.63
2017-09-24T04:21:13.274Z,40.37
2017-09-24T04:23:40.800Z,38.40
2017-09-24T04:26:08.267Z,36.43
2017-09-24T04:28:35.747Z,38.27
2017-09-24T04:31:03.212Z,42.23
2017-09-24T04:33:30.689Z,33.43
2017-09-24T04:35:58.909Z,33.40
2017-09-24T04:38:26.396Z,38.57
2017-09-24T04:40:53.862Z,34.40
2017-09-24T04:43:21.342Z,35.07
2017-09-24T04:45:49.588Z,34.13
2017-09-24T04:48:17.062Z,31.33
2017-09-24T04:50:45.303Z,35.07
2017-09-24T04:53:12.776Z,35.10
2017-09-24T04:55:40.246Z,38.27
2017-09-24T04:58:07.720Z,33.57
2017-09-24T05:00:35.961Z,35.87
2017-09-24T05:03:03.421Z,32.23
2017-09-24T05:05:30.909Z,31.37
2017-09-24T05:07:59.144Z,37.13
2017-09-24T05:10:27.381Z,34.90
2017-09-24T05:12:54.847Z,32.30
2017-09-24T05:15:22.323Z,30.93
2017-09-24T05:17:49.792Z,32.07
2017-09-24T05:20:17.266Z,32.47
2017-09-24T05:22:44.731Z,31.60
2017-09-24T05:25:12.207Z,32.90
2017-09-24T05:27:40.464Z,35.20
2017-09-24T05:30:07.932Z,33.77
2017-09-24T05:32:35.409Z,32.30
2017-09-24T05:35:03.655Z,32.63
2017-09-24T05:37:31.138Z,34.33
2017-09-24T05:39:59.383Z,31.90
2017-09-24T05:42:26.848Z,32.53
2017-09-24T05:44:54.330Z,34.50
2017-09-24T05:47:22.576Z,30.20
2017-09-24T05:49:50.050Z,32.83
2017-09-24T05:52:17.532Z,30.53
2017-09-24T05:54:45.763Z,35.60
2017-09-24T05:57:13.248Z,33.83
2017-09-24T05:59:40.715Z,35.83
2017-09-24T06:02:08.955Z,35.97
2017-09-24T06:04:36.417Z,37.00
2017-09-24T06:07:03.903Z,43.23
2017-09-24T06:09:31.370Z,39.50
2017-09-24T06:11:59.612Z,38.37
2017-09-24T06:14:27.083Z,36.77
2017-09-24T06:16:54.560Z,39.17
2017-09-24T06:19:22.787Z,41.10
2017-09-24T06:21:50.296Z,33.20
2017-09-24T06:24:17.761Z,35.67
2017-09-24T06:26:46.016Z,32.90
2017-09-24T06:29:13.478Z,33.53
2017-09-24T06:31:40.960Z,32.00
2017-09-24T06:34:09.182Z,36.93
2017-09-24T06:36:36.664Z,33.33
2017-09-24T06:39:04.135Z,29.73
2017-09-24T06:41:32.395Z,33.70
2017-09-24T06:43:59.870Z,31.93
2017-09-24T06:46:28.107Z,32.50
2017-09-24T06:48:55.651Z,31.00
2017-09-24T06:51:23.106Z,30.27
2017-09-24T06:53:50.579Z,27.23
2017-09-24T06:56:18.052Z,29.27
2017-09-24T06:58:45.545Z,29.40
2017-09-24T07:01:13.003Z,29.50
2017-09-24T07:03:41.244Z,28.50
2017-09-24T07:06:08.714Z,32.80
2017-09-24T07:08:36.190Z,28.83
2017-09-24T07:11:04.422Z,25.73
2017-09-24T07:13:31.895Z,27.43
2017-09-24T07:16:00.135Z,27.40
2017-09-24T07:18:27.824Z,27.93
2017-09-24T07:20:55.290Z,23.23
2017-09-24T07:23:22.765Z,26.77
2017-09-24T07:25:50.231Z,27.63
2017-09-24T07:28:17.712Z,28.83
2017-09-24T07:30:45.940Z,26.00
2017-09-24T07:33:13.421Z,31.17
2017-09-24T07:35:40.898Z,28.00
2017-09-24T07:38:08.376Z,27.47
2017-09-24T07:40:35.850Z,25.07
2017-09-24T07:43:03.315Z,31.23
2017-09-24T07:45:30.782Z,30.67
2017-09-24T07:47:58.259Z,28.50
2017-09-24T07:50:25.747Z,28.03
2017-09-24T07:52:53.970Z,30.80
2017-09-24T07:55:21.451Z,26.57
2017-09-24T07:57:48.927Z,32.77
2017-09-24T08:00:16.401Z,28.30
2017-09-24T08:02:44.643Z,31.17
2017-09-24T08:05:12.132Z,34.83
2017-09-24T08:07:40.365Z,30.47
2017-09-24T08:10:07.847Z,38.57
2017-09-24T08:12:35.322Z,32.40
2017-09-24T08:15:02.804Z,32.87
2017-09-24T08:17:30.480Z,34.27
2017-09-24T08:19:57.955Z,31.27
2017-09-24T08:22:25.419Z,33.33
2017-09-24T08:24:52.898Z,32.67
2017-09-24T08:27:20.368Z,30.00
2017-09-24T08:29:47.851Z,30.10
2017-09-24T08:32:16.092Z,27.57
2017-09-24T08:34:43.567Z,27.77
2017-09-24T08:37:11.038Z,29.33
2017-09-24T08:39:39.273Z,26.83
2017-09-24T08:42:06.755Z,30.50
2017-09-24T08:44:34.218Z,27.67
2017-09-24T08:47:01.696Z,29.07
2017-09-24T08:49:29.921Z,30.53
2017-09-24T08:51:58.090Z,28.37
2017-09-24T08:54:25.554Z,29.20
2017-09-24T08:56:53.032Z,29.40
2017-09-24T08:59:20.504Z,28.43
2017-09-24T09:01:47.976Z,27.90
2017-09-24T09:04:16.231Z,29.10
2017-09-24T09:06:43.698Z,28.73
2017-09-24T09:09:11.940Z,29.90
2017-09-24T09:11:39.410Z,30.60
2017-09-24T09:14:06.888Z,33.30
2017-09-24T09:19:24.928Z,26.50
2017-09-24T09:21:52.404Z,32.47
2017-09-24T09:24:20.656Z,34.00
2017-09-24T09:26:48.122Z,32.27
2017-09-24T09:29:15.594Z,32.87
2017-09-24T09:31:43.106Z,29.80
2017-09-24T09:34:22.431Z,34.77
2017-09-24T09:36:49.912Z,39.53
2017-09-24T09:39:17.370Z,36.93
2017-09-24T09:41:44.857Z,40.00
2017-09-24T09:44:24.276Z,36.90
2017-09-24T09:46:59.822Z,38.77
2017-09-24T09:49:27.321Z,34.80
2017-09-24T09:51:55.955Z,38.10
2017-09-24T09:54:23.410Z,33.73
2017-09-24T09:56:50.897Z,21.87
2017-09-24T09:59:18.359Z,22.83
2017-09-24T10:01:45.873Z,24.43
2017-09-24T10:04:13.348Z,15.70
2017-09-24T10:06:46.798Z,15.70
2017-09-24T10:09:26.929Z,16.20
2017-09-24T10:11:54.401Z,18.20
2017-09-24T10:14:21.865Z,13.83
2017-09-24T10:16:50.113Z,14.50
2017-09-24T10:19:17.587Z,13.63
2017-09-24T10:21:45.954Z,12.00
2017-09-24T10:24:13.417Z,12.37
2017-09-24T10:26:41.775Z,10.07
2017-09-24T10:29:21.332Z,10.97
2017-09-24T10:32:03.684Z,12.20
2017-09-24T10:34:31.957Z,17.53
2017-09-24T10:37:00.181Z,12.10
2017-09-24T10:39:27.654Z,11.03
2017-09-24T10:41:55.143Z,11.47
2017-09-24T10:44:24.447Z,12.20
2017-09-24T10:46:52.679Z,11.80
2017-09-24T10:49:20.159Z,13.47
2017-09-24T10:51:47.695Z,11.10
2017-09-24T10:54:15.204Z,14.00
2017-09-24T10:56:43.429Z,11.00
2017-09-24T10:59:11.616Z,12.10
2017-09-24T11:01:39.083Z,11.03
2017-09-24T11:04:07.478Z,11.33
2017-09-24T11:06:34.943Z,11.37
2017-09-24T11:09:04.121Z,11.83
2017-09-24T11:11:33.211Z,12.47
2017-09-24T11:14:00.761Z,12.63
2017-09-24T11:16:28.251Z,12.60
2017-09-24T11:18:55.696Z,12.87
2017-09-24T11:21:23.176Z,15.90
2017-09-24T11:23:51.419Z,13.00
2017-09-24T11:26:18.897Z,10.93
2017-09-24T11:28:46.365Z,11.50
2017-09-24T11:31:14.606Z,13.40
2017-09-24T11:33:42.076Z,12.07
2017-09-24T11:36:09.552Z,12.03
2017-09-24T11:38:37.022Z,17.77
2017-09-24T11:41:05.265Z,10.80
2017-09-24T11:43:32.734Z,13.23
2017-09-24T11:46:00.216Z,14.80
2017-09-24T11:48:28.457Z,15.50
2017-09-24T11:50:55.971Z,12.37
2017-09-24T11:53:23.438Z,14.67
2017-09-24T11:55:50.894Z,13.93
2017-09-24T11:58:18.390Z,10.20
2017-09-24T12:00:45.898Z,14.60
2017-09-24T12:03:13.374Z,9.97
2017-09-24T12:05:40.873Z,10.73
2017-09-24T12:08:08.358Z,10.80
2017-09-24T12:10:36.589Z,10.93
2017-09-24T12:13:04.069Z,10.30
2017-09-24T12:15:31.527Z,11.20
2017-09-24T12:17:58.987Z,8.97
2017-09-24T12:20:26.454Z,10.33
2017-09-24T12:22:53.932Z,10.20
2017-09-24T12:25:22.172Z,10.67
2017-09-24T12:27:49.645Z,10.53
2017-09-24T12:30:17.115Z,11.70
2017-09-24T12:32:45.781Z,12.23
2017-09-24T12:35:13.246Z,13.27
2017-09-24T12:37:40.797Z,12.63
2017-09-24T12:40:08.271Z,11.93
2017-09-24T12:42:35.756Z,12.37
2017-09-24T12:45:03.231Z,11.63
2017-09-24T12:47:30.702Z,15.00
2017-09-24T12:49:58.182Z,17.90
2017-09-24T12:52:25.641Z,15.70
2017-09-24T12:54:53.119Z,16.77
2017-09-24T12:57:20.631Z,19.17
2017-09-24T12:59:48.100Z,16.83
2017-09-24T13:02:15.580Z,18.47
2017-09-24T13:04:43.048Z,18.97
2017-09-24T13:07:10.525Z,19.57
2017-09-24T13:09:38.768Z,19.37
2017-09-24T13:12:06.255Z,22.17
2017-09-24T13:14:34.508Z,19.23
2017-09-24T13:17:01.975Z,22.17
2017-09-24T13:19:29.628Z,23.47
2017-09-24T13:21:57.763Z,23.97
2017-09-24T13:24:25.576Z,19.77
2017-09-24T13:26:53.034Z,21.50
2017-09-24T13:29:20.523Z,23.40
2017-09-24T13:31:48.016Z,25.90
2017-09-24T13:34:15.495Z,23.07
2017-09-24T13:36:42.955Z,24.90
2017-09-24T13:39:10.441Z,22.53
2017-09-24T13:41:37.890Z,21.17
2017-09-24T13:44:05.375Z,23.80
2017-09-24T13:46:33.614Z,25.07
2017-09-24T13:49:01.173Z,20.90
2017-09-24T13:51:28.660Z,19.63
2017-09-24T13:53:56.894Z,19.37
2017-09-24T13:56:26.188Z,21.93
2017-09-24T13:58:53.667Z,21.57
2017-09-24T14:01:21.135Z,23.13
2017-09-24T14:03:48.603Z,20.13
2017-09-24T14:06:16.855Z,18.77
2017-09-24T14:08:44.327Z,25.03
2017-09-24T14:11:11.803Z,22.40
2017-09-24T14:13:40.744Z,22.27
2017-09-24T14:16:09.607Z,22.30
2017-09-24T14:18:37.903Z,22.93
2017-09-24T14:21:05.386Z,25.90
2017-09-24T14:23:32.848Z,25.00
2017-09-24T14:26:00.337Z,20.67
2017-09-24T14:28:27.796Z,24.37
2017-09-24T14:30:56.051Z,22.97
2017-09-24T14:33:23.884Z,21.33
2017-09-24T14:35:51.385Z,23.20
2017-09-24T14:38:18.847Z,21.17
2017-09-24T14:40:46.322Z,24.00
2017-09-24T14:43:14.555Z,20.37
2017-09-24T14:45:42.028Z,24.53
2017-09-24T14:48:09.503Z,24.57
2017-09-24T14:50:36.985Z,24.27
2017-09-24T14:53:04.467Z,25.43
2017-09-24T14:58:25.468Z,26.07
2017-09-24T15:00:53.699Z,25.60
2017-09-24T15:03:21.174Z,27.43
2017-09-24T15:05:48.648Z,28.97
2017-09-24T15:08:16.893Z,27.03
2017-09-24T15:10:44.357Z,30.93
2017-09-24T15:13:11.837Z,27.00
2017-09-24T15:15:39.298Z,26.10
2017-09-24T15:18:07.534Z,31.93
2017-09-24T15:20:35.009Z,32.37
2017-09-24T15:23:02.502Z,30.87
2017-09-24T15:25:30.753Z,33.60
2017-09-24T15:27:58.243Z,32.43
2017-09-24T15:30:25.715Z,32.30
2017-09-24T15:32:53.574Z,28.33
2017-09-24T15:35:21.787Z,29.13
2017-09-24T15:37:49.275Z,34.23
2017-09-24T15:40:16.747Z,33.67
2017-09-24T15:42:45.004Z,32.40
2017-09-24T15:45:12.473Z,32.30
2017-09-24T15:47:39.951Z,26.50
2017-09-24T15:50:08.195Z,27.40
2017-09-24T15:52:35.676Z,30.23
2017-09-24T15:55:03.898Z,32.63
2017-09-24T15:57:31.364Z,29.70
2017-09-24T15:59:58.842Z,32.43
2017-09-24T16:02:26.321Z,40.07
2017-09-24T16:04:53.798Z,35.87
2017-09-24T16:07:21.268Z,39.10
2017-09-24T16:09:48.743Z,37.37
2017-09-24T16:12:16.212Z,35.63
2017-09-24T16:14:43.695Z,30.93
2017-09-24T16:17:11.186Z,38.90
2017-09-24T16:19:39.682Z,35.53
2017-09-24T16:22:07.175Z,31.80
2017-09-24T16:24:34.654Z,37.43
2017-09-24T16:27:02.121Z,38.97
2017-09-24T16:29:29.604Z,41.53
2017-09-24T16:31:57.835Z,38.83
2017-09-24T16:34:25.316Z,40.37
2017-09-24T16:36:52.788Z,42.93
2017-09-24T16:39:20.255Z,41.37
2017-09-24T16:41:48.484Z,36.43
2017-09-24T16:44:16.742Z,41.13
2017-09-24T16:46:44.209Z,29.67
2017-09-24T16:49:11.729Z,33.97
2017-09-24T16:51:39.969Z,36.80
2017-09-24T16:54:07.437Z,46.70
2017-09-24T16:56:34.916Z,39.67
2017-09-24T16:59:03.156Z,34.67
2017-09-24T17:01:30.629Z,35.80
2017-09-24T17:03:58.107Z,32.27
2017-09-24T17:06:26.619Z,30.57
2017-09-24T17:08:54.082Z,36.47
2017-09-24T17:11:21.559Z,33.57
2017-09-24T17:13:49.026Z,34.73
2017-09-24T17:16:16.510Z,35.30
2017-09-24T17:18:43.974Z,34.70
2017-09-24T17:21:12.218Z,37.60
2017-09-24T17:23:39.683Z,40.00
2017-09-24T17:26:07.155Z,37.80
2017-09-24T17:28:34.768Z,41.90
2017-09-24T17:31:02.242Z,38.60
2017-09-24T17:33:29.719Z,41.67
2017-09-24T17:35:57.190Z,36.33
2017-09-24T17:38:24.663Z,40.50
2017-09-24T17:40:52.909Z,41.77
2017-09-24T17:43:20.375Z,45.07
2017-09-24T17:45:47.876Z,39.83
2017-09-24T17:48:16.114Z,36.50
2017-09-24T17:50:43.604Z,30.60
2017-09-24T17:53:11.830Z,44.47
2017-09-24T17:55:39.302Z,38.07
2017-09-24T17:58:06.783Z,38.63
2017-09-24T18:00:35.020Z,42.40
2017-09-24T18:03:02.499Z,41.37
2017-09-24T18:05:29.975Z,43.27
2017-09-24T18:07:57.454Z,39.30
2017-09-24T18:10:25.726Z,45.57
2017-09-24T18:12:53.977Z,46.30
2017-09-24T18:15:21.444Z,43.33
2017-09-24T18:17:48.919Z,41.07
2017-09-24T18:20:17.142Z,36.37
2017-09-24T18:22:44.628Z,35.57
2017-09-24T18:25:12.091Z,44.77
2017-09-24T18:27:39.558Z,41.33
2017-09-24T18:30:07.791Z,41.00
2017-09-24T18:32:35.295Z,40.93
2017-09-24T18:35:02.754Z,48.87
2017-09-24T18:37:31.003Z,46.23
2017-09-24T18:39:58.472Z,41.60
2017-09-24T18:42:25.949Z,44.97
2017-09-24T18:44:54.174Z,41.43
2017-09-24T18:47:21.651Z,45.87
2017-09-24T18:49:49.123Z,44.67
2017-09-24T18:52:16.615Z,46.90
2017-09-24T18:54:44.864Z,55.97
2017-09-24T18:57:12.339Z,40.60
2017-09-24T18:59:41.135Z,42.90
2017-09-24T19:02:09.373Z,52.23
2017-09-24T19:04:36.848Z,43.47
2017-09-24T19:07:04.310Z,39.60
2017-09-24T19:09:32.546Z,45.37
2017-09-24T19:12:00.011Z,41.80
2017-09-24T19:14:27.482Z,45.23
2017-09-24T19:16:55.003Z,57.27
2017-09-24T19:19:22.504Z,52.47
2017-09-24T19:21:49.974Z,53.37
2017-09-24T19:24:17.460Z,46.73
2017-09-24T19:26:44.932Z,51.07
2017-09-24T19:29:12.409Z,49.93
2017-09-24T19:31:39.877Z,37.47
2017-09-24T19:34:07.355Z,49.13
2017-09-24T19:36:34.845Z,43.60
2017-09-24T19:39:03.082Z,43.00
2017-09-24T19:41:30.542Z,42.77
2017-09-24T19:43:58.027Z,53.70
2017-09-24T19:46:26.288Z,53.83
2017-09-24T19:48:53.767Z,42.97
2017-09-24T19:51:21.994Z,43.47
2017-09-24T19:53:49.469Z,44.93
2017-09-24T19:56:16.934Z,52.97
2017-09-24T19:58:44.407Z,44.43
2017-09-24T20:01:11.889Z,39.50
2017-09-24T20:03:40.114Z,59.60
2017-09-24T20:06:07.578Z,44.30
2017-09-24T20:08:35.062Z,42.77
2017-09-24T20:11:02.556Z,47.20
2017-09-24T20:13:29.999Z,48.80
2017-09-24T20:15:57.496Z,43.23
2017-09-24T20:18:24.982Z,49.90
2017-09-24T20:20:52.460Z,53.90
2017-09-24T20:23:20.703Z,56.13
2017-09-24T20:25:48.952Z,49.27
2017-09-24T20:28:16.418Z,41.50
2017-09-24T20:30:43.896Z,46.93
2017-09-24T20:33:11.375Z,43.67
2017-09-24T20:35:38.857Z,50.77
2017-09-24T20:38:07.078Z,52.40
2017-09-24T20:40:35.328Z,39.20
2017-09-24T20:43:02.804Z,43.83
2017-09-24T20:45:30.274Z,38.60
2017-09-24T20:47:58.032Z,46.40
2017-09-24T20:50:25.548Z,49.83
2017-09-24T20:52:53.051Z,49.40
2017-09-24T20:55:20.524Z,44.90
2017-09-24T20:57:48.786Z,42.87
2017-09-24T21:00:16.280Z,48.67
2017-09-24T21:02:43.759Z,47.23
2017-09-24T21:05:12.010Z,82.77
2017-09-24T21:07:39.492Z,44.60
2017-09-24T21:10:07.723Z,42.63
2017-09-24T21:12:35.280Z,59.23
2017-09-24T21:15:02.771Z,40.20
2017-09-24T21:17:30.252Z,40.20
2017-09-24T21:19:58.483Z,41.97
2017-09-24T21:22:25.971Z,60.63
2017-09-24T21:24:53.440Z,47.77
2017-09-24T21:27:21.706Z,35.53
2017-09-24T21:29:49.171Z,51.70
2017-09-24T21:32:17.416Z,46.20
2017-09-24T21:34:44.895Z,46.00
2017-09-24T21:37:12.502Z,52.70
2017-09-24T21:39:39.983Z,40.87
2017-09-24T21:42:07.467Z,36.30
2017-09-24T21:44:34.954Z,67.83
2017-09-24T21:47:02.436Z,55.47
2017-09-24T21:49:29.910Z,63.07
2017-09-24T21:51:57.962Z,49.57
2017-09-24T21:54:25.427Z,41.13
2017-09-24T21:56:52.896Z,42.00
2017-09-24T21:59:20.377Z,39.60
2017-09-24T22:01:47.843Z,44.63
2017-09-24T22:04:15.315Z,47.13
2017-09-24T22:06:42.792Z,45.30
2017-09-24T22:09:11.064Z,48.17
2017-09-24T22:11:38.544Z,40.27
2017-09-24T22:14:06.020Z,57.20
2017-09-24T22:16:33.480Z,47.20
2017-09-24T22:19:00.956Z,41.33
2017-09-24T22:21:28.415Z,46.37
2017-09-24T22:23:55.898Z,48.00
2017-09-24T22:26:23.363Z,47.97
2017-09-24T22:28:51.610Z,44.90
2017-09-24T22:31:19.078Z,45.27
2017-09-24T22:33:46.553Z,85.70
2017-09-24T22:36:14.788Z,45.27
2017-09-24T22:38:42.263Z,45.43
2017-09-24T22:41:09.732Z,40.07
2017-09-24T22:43:37.199Z,44.60
2017-09-24T22:46:05.437Z,50.17
2017-09-24T22:48:32.924Z,48.50
2017-09-24T22:51:00.400Z,54.13
2017-09-24T22:53:28.655Z,38.73
2017-09-24T22:55:56.114Z,37.93
2017-09-24T22:58:23.589Z,57.73
2017-09-24T23:00:51.067Z,63.63
2017-09-24T23:03:19.306Z,35.87
2017-09-24T23:05:46.786Z,41.40
2017-09-24T23:08:15.024Z,38.70
2017-09-24T23:10:42.540Z,37.47
2017-09-24T23:13:09.988Z,43.80
2017-09-24T23:15:38.230Z,74.03
2017-09-24T23:18:05.698Z,42.27
2017-09-24T23:20:33.175Z,35.30
2017-09-24T23:23:01.416Z,32.80
2017-09-24T23:25:28.890Z,32.07
2017-09-24T23:27:56.346Z,31.03
2017-09-24T23:30:23.821Z,39.77
2017-09-24T23:32:52.051Z,33.50
2017-09-24T23:35:19.528Z,27.30
2017-09-24T23:37:46.995Z,29.10
2017-09-24T23:40:14.471Z,28.27
2017-09-24T23:42:41.959Z,26.13
2017-09-24T23:45:09.443Z,24.80
2017-09-24T23:47:36.905Z,26.47
2017-09-24T23:50:04.378Z,32.73
2017-09-24T23:52:31.856Z,20.17
2017-09-24T23:54:59.322Z,25.90
2017-09-24T23:57:26.803Z,25.17
2017-09-24T23:59:55.028Z,38.30
